createdAt,value
2022-08-28T00:00:24.877Z,17.36
2022-08-28T00:02:51.431Z,17.37
2022-08-28T00:05:19.300Z,17.35
2022-08-28T00:07:47.921Z,17.35
2022-08-28T00:10:15.548Z,17.34
2022-08-28T00:12:41.996Z,17.36
2022-08-28T00:15:12.954Z,17.35
2022-08-28T00:17:40.690Z,17.24
2022-08-28T00:20:07.945Z,17.19
2022-08-28T00:22:34.557Z,17.18
2022-08-28T00:25:01.091Z,17.12
2022-08-28T00:27:46.279Z,17.18
2022-08-28T00:30:12.772Z,17.21
2022-08-28T00:32:39.242Z,17.13
2022-08-28T00:35:06.676Z,17.09
2022-08-28T00:37:33.685Z,17.06
2022-08-28T00:40:00.174Z,17.10
2022-08-28T00:42:27.510Z,17.18
2022-08-28T00:44:53.942Z,17.14
2022-08-28T00:47:20.377Z,17.15
2022-08-28T00:49:51.354Z,17.08
2022-08-28T00:52:18.986Z,17.14
2022-08-28T00:54:59.313Z,17.08
2022-08-28T00:57:31.179Z,17.05
2022-08-28T00:59:58.536Z,17.11
2022-08-28T01:02:25.437Z,17.07
2022-08-28T01:04:52.006Z,17.12
2022-08-28T01:07:18.933Z,17.09
2022-08-28T01:09:47.511Z,17.07
2022-08-28T01:12:24.379Z,17.08
2022-08-28T01:14:58.556Z,17.13
2022-08-28T01:17:25.845Z,17.09
2022-08-28T01:19:57.175Z,17.11
2022-08-28T01:22:23.584Z,17.02
2022-08-28T01:24:52.520Z,16.94
2022-08-28T01:27:19.175Z,16.95
2022-08-28T01:29:45.730Z,16.99
2022-08-28T01:32:14.835Z,17.01
2022-08-28T01:34:41.402Z,17.00
2022-08-28T01:37:07.793Z,16.97
2022-08-28T01:39:35.838Z,16.95
2022-08-28T01:42:03.781Z,16.96
2022-08-28T01:44:30.190Z,16.95
2022-08-28T01:46:57.898Z,16.90
2022-08-28T01:49:24.888Z,16.82
2022-08-28T01:51:52.407Z,16.80
2022-08-28T01:54:21.454Z,16.73
2022-08-28T01:56:47.882Z,16.72
2022-08-28T01:59:14.550Z,16.82
2022-08-28T02:01:43.016Z,16.75
2022-08-28T02:04:10.343Z,16.78
2022-08-28T02:06:37.950Z,16.76
2022-08-28T02:09:05.735Z,16.65
2022-08-28T02:11:33.025Z,16.64
2022-08-28T02:14:00.313Z,16.58
2022-08-28T02:16:27.394Z,16.56
2022-08-28T02:18:53.797Z,16.56
2022-08-28T02:21:20.387Z,16.61
2022-08-28T02:23:49.672Z,16.58
2022-08-28T02:26:16.303Z,16.55
2022-08-28T02:28:43.397Z,16.51
2022-08-28T02:31:10.136Z,16.51
2022-08-28T02:33:43.669Z,16.50
2022-08-28T02:36:13.138Z,16.52
2022-08-28T02:38:39.691Z,16.51
2022-08-28T02:41:06.894Z,16.53
2022-08-28T02:43:33.388Z,16.55
2022-08-28T02:45:59.970Z,16.50
2022-08-28T02:48:34.260Z,16.45
2022-08-28T02:51:02.748Z,16.45
2022-08-28T02:53:30.047Z,16.46
2022-08-28T02:55:57.146Z,16.40
2022-08-28T02:58:26.010Z,16.36
2022-08-28T03:00:56.137Z,16.35
2022-08-28T03:03:22.607Z,16.42
2022-08-28T03:05:52.871Z,16.51
2022-08-28T03:08:23.437Z,16.43
2022-08-28T03:10:53.879Z,16.42
2022-08-28T03:13:26.764Z,16.38
2022-08-28T03:15:57.792Z,16.31
2022-08-28T03:18:28.752Z,16.43
2022-08-28T03:20:55.896Z,16.35
2022-08-28T03:23:29.062Z,16.37
2022-08-28T03:26:04.915Z,16.35
2022-08-28T03:28:33.893Z,16.38
2022-08-28T03:31:00.663Z,16.32
2022-08-28T03:33:30.584Z,16.29
2022-08-28T03:35:57.831Z,16.30
2022-08-28T03:38:27.402Z,16.35
2022-08-28T03:40:53.933Z,16.30
2022-08-28T03:43:22.244Z,16.26
2022-08-28T03:46:02.603Z,16.26
2022-08-28T03:48:34.459Z,16.27
2022-08-28T03:51:00.918Z,16.27
2022-08-28T03:53:29.120Z,16.25
2022-08-28T03:55:56.227Z,16.23
2022-08-28T03:58:23.343Z,16.29
2022-08-28T04:00:53.233Z,16.22
2022-08-28T04:03:20.728Z,16.20
2022-08-28T04:05:47.813Z,16.20
2022-08-28T04:08:18.820Z,16.22
2022-08-28T04:10:45.890Z,16.25
2022-08-28T04:13:13.110Z,16.20
2022-08-28T04:15:39.730Z,16.14
2022-08-28T04:18:09.894Z,16.12
2022-08-28T04:20:39.541Z,16.16
2022-08-28T04:23:08.372Z,16.17
2022-08-28T04:25:34.771Z,16.25
2022-08-28T04:28:01.199Z,16.29
2022-08-28T04:30:33.939Z,16.26
2022-08-28T04:33:00.374Z,16.21
2022-08-28T04:35:27.058Z,16.21
2022-08-28T04:37:55.592Z,16.18
2022-08-28T04:40:25.133Z,16.26
2022-08-28T04:42:51.757Z,16.28
2022-08-28T04:45:22.079Z,16.30
2022-08-28T04:47:48.971Z,16.28
2022-08-28T04:50:15.369Z,16.19
2022-08-28T04:52:43.483Z,16.25
2022-08-28T04:55:10.491Z,16.30
2022-08-28T04:57:39.979Z,16.31
2022-08-28T05:00:07.111Z,16.30
2022-08-28T05:02:33.644Z,16.23
2022-08-28T05:05:00.117Z,16.29
2022-08-28T05:07:26.553Z,16.30
2022-08-28T05:09:54.084Z,16.30
2022-08-28T05:12:20.513Z,16.21
2022-08-28T05:14:49.851Z,16.21
2022-08-28T05:17:16.276Z,16.26
2022-08-28T05:19:43.782Z,16.21
2022-08-28T05:22:13.770Z,16.22
2022-08-28T05:24:40.523Z,16.19
2022-08-28T05:27:07.389Z,16.25
2022-08-28T05:29:33.819Z,16.25
2022-08-28T05:32:00.334Z,16.27
2022-08-28T05:34:26.872Z,16.20
2022-08-28T05:36:53.253Z,16.22
2022-08-28T05:39:20.795Z,16.26
2022-08-28T05:41:47.267Z,16.29
2022-08-28T05:44:17.292Z,16.29
2022-08-28T05:46:47.418Z,16.28
2022-08-28T05:49:14.646Z,16.25
2022-08-28T05:51:43.758Z,16.24
2022-08-28T05:54:11.108Z,16.25
2022-08-28T05:56:38.719Z,16.24
2022-08-28T05:59:05.935Z,16.27
2022-08-28T06:01:33.700Z,16.37
2022-08-28T06:04:17.981Z,16.40
2022-08-28T06:06:44.794Z,16.48
2022-08-28T06:09:16.866Z,16.50
2022-08-28T06:11:44.812Z,16.54
2022-08-28T06:14:13.624Z,16.45
2022-08-28T06:16:43.024Z,16.50
2022-08-28T06:19:10.407Z,16.43
2022-08-28T06:21:37.579Z,16.44
2022-08-28T06:24:07.409Z,16.45
2022-08-28T06:26:33.856Z,16.46
2022-08-28T06:29:05.309Z,16.46
2022-08-28T06:31:33.413Z,16.52
2022-08-28T06:34:01.455Z,16.50
2022-08-28T06:36:29.371Z,16.57
2022-08-28T06:39:01.041Z,16.66
2022-08-28T06:41:28.105Z,16.68
2022-08-28T06:43:55.079Z,16.78
2022-08-28T06:46:22.016Z,16.82
2022-08-28T06:48:48.482Z,16.79
2022-08-28T06:51:14.993Z,16.91
2022-08-28T06:53:42.311Z,16.93
2022-08-28T06:56:08.907Z,17.01
2022-08-28T06:58:36.981Z,17.01
2022-08-28T07:01:12.207Z,16.91
2022-08-28T07:03:44.241Z,16.95
2022-08-28T07:06:11.766Z,16.93
2022-08-28T07:08:41.704Z,16.89
2022-08-28T07:11:13.979Z,16.95
2022-08-28T07:13:41.354Z,16.99
2022-08-28T07:16:08.131Z,17.02
2022-08-28T07:18:34.779Z,17.04
2022-08-28T07:21:01.230Z,17.08
2022-08-28T07:23:28.539Z,17.11
2022-08-28T07:25:55.058Z,17.15
2022-08-28T07:28:21.884Z,17.09
2022-08-28T07:30:59.095Z,17.11
2022-08-28T07:33:26.704Z,17.13
2022-08-28T07:35:53.567Z,17.13
2022-08-28T07:38:20.685Z,17.16
2022-08-28T07:40:47.349Z,17.25
2022-08-28T07:43:32.444Z,17.14
2022-08-28T07:46:06.560Z,17.25
2022-08-28T07:48:35.103Z,17.26
2022-08-28T07:51:02.188Z,17.24
2022-08-28T07:53:30.396Z,17.29
2022-08-28T07:56:01.344Z,17.28
2022-08-28T07:58:30.587Z,17.21
2022-08-28T08:00:57.613Z,17.35
2022-08-28T08:03:26.034Z,17.28
2022-08-28T08:05:53.984Z,17.24
2022-08-28T08:08:21.368Z,17.34
2022-08-28T08:11:01.913Z,17.47
2022-08-28T08:13:29.594Z,17.51
2022-08-28T08:16:09.712Z,17.47
2022-08-28T08:18:36.208Z,17.57
2022-08-28T08:21:04.630Z,17.46
2022-08-28T08:23:31.039Z,17.36
2022-08-28T08:26:00.143Z,17.40
2022-08-28T08:28:27.433Z,17.48
2022-08-28T08:31:07.748Z,17.49
2022-08-28T08:33:34.855Z,17.58
2022-08-28T08:36:01.262Z,17.71
2022-08-28T08:38:31.394Z,17.74
2022-08-28T08:40:59.454Z,17.62
2022-08-28T08:43:27.681Z,17.58
2022-08-28T08:45:54.316Z,17.71
2022-08-28T08:48:32.154Z,17.69
2022-08-28T08:51:03.192Z,17.73
2022-08-28T08:53:47.952Z,17.85
2022-08-28T08:56:16.864Z,17.87
2022-08-28T08:58:51.214Z,17.85
2022-08-28T09:01:22.143Z,18.28
2022-08-28T09:04:22.294Z,18.20
2022-08-28T09:06:51.731Z,18.14
2022-08-28T09:09:21.180Z,17.98
2022-08-28T09:11:56.990Z,17.96
2022-08-28T09:14:30.373Z,18.38
2022-08-28T09:16:57.745Z,18.63
2022-08-28T09:19:24.215Z,18.49
2022-08-28T09:21:51.066Z,18.42
2022-08-28T09:24:28.470Z,18.34
2022-08-28T09:26:56.679Z,18.18
2022-08-28T09:29:31.726Z,18.29
2022-08-28T09:31:58.588Z,18.66
2022-08-28T09:34:24.993Z,18.81
2022-08-28T09:36:56.089Z,18.65
2022-08-28T09:39:22.511Z,18.95
2022-08-28T09:42:10.023Z,19.20
2022-08-28T09:44:53.991Z,19.17
2022-08-28T09:47:47.226Z,19.27
2022-08-28T09:50:19.721Z,19.02
2022-08-28T09:52:46.195Z,18.72
2022-08-28T09:55:16.002Z,18.79
2022-08-28T09:57:45.215Z,19.10
2022-08-28T10:00:11.842Z,19.17
2022-08-28T10:02:44.663Z,19.29
2022-08-28T10:05:16.212Z,18.90
2022-08-28T10:07:49.851Z,18.88
2022-08-28T10:10:25.224Z,18.99
2022-08-28T10:13:12.095Z,19.02
2022-08-28T10:15:43.323Z,19.21
2022-08-28T10:18:36.109Z,19.67
2022-08-28T10:21:21.989Z,20.00
2022-08-28T10:24:07.316Z,19.77
2022-08-28T10:26:47.227Z,19.68
2022-08-28T10:29:29.097Z,20.05
2022-08-28T10:32:20.462Z,20.22
2022-08-28T10:35:01.543Z,19.83
2022-08-28T10:37:46.619Z,20.14
2022-08-28T10:40:12.991Z,20.05
2022-08-28T10:42:43.521Z,20.67
2022-08-28T10:45:17.339Z,21.00
2022-08-28T10:47:47.753Z,21.07
2022-08-28T10:50:37.176Z,20.95
2022-08-28T10:53:07.210Z,20.90
2022-08-28T10:55:37.797Z,20.96
2022-08-28T10:58:23.794Z,20.77
2022-08-28T11:00:56.973Z,21.03
2022-08-28T11:03:34.397Z,21.13
2022-08-28T11:06:05.772Z,20.91
2022-08-28T11:08:35.250Z,21.20
2022-08-28T11:11:03.125Z,21.27
2022-08-28T11:13:48.160Z,21.06
2022-08-28T11:16:20.592Z,21.17
2022-08-28T11:19:07.284Z,21.32
2022-08-28T11:21:36.504Z,21.33
2022-08-28T11:24:11.217Z,21.25
2022-08-28T11:27:00.566Z,21.44
2022-08-28T11:29:45.520Z,21.64
2022-08-28T11:32:47.109Z,21.52
2022-08-28T11:35:32.286Z,21.38
2022-08-28T11:38:01.714Z,21.65
2022-08-28T11:40:28.245Z,21.74
2022-08-28T11:43:16.417Z,21.69
2022-08-28T11:45:46.701Z,21.53
2022-08-28T11:48:22.692Z,21.65
2022-08-28T11:50:55.240Z,21.72
2022-08-28T11:53:31.587Z,21.64
2022-08-28T11:56:29.116Z,21.63
2022-08-28T11:59:20.646Z,21.58
2022-08-28T12:01:48.808Z,21.53
2022-08-28T12:04:17.529Z,21.46
2022-08-28T12:06:50.239Z,21.67
2022-08-28T12:09:35.117Z,21.78
2022-08-28T12:12:04.305Z,21.88
2022-08-28T12:14:31.349Z,21.88
2022-08-28T12:17:07.757Z,21.94
2022-08-28T12:19:41.170Z,21.99
2022-08-28T12:22:26.723Z,21.96
2022-08-28T12:25:05.667Z,21.66
2022-08-28T12:27:36.516Z,21.75
2022-08-28T12:30:06.857Z,21.53
2022-08-28T12:32:42.216Z,21.34
2022-08-28T12:35:08.696Z,21.33
2022-08-28T12:37:42.932Z,21.28
2022-08-28T12:40:27.450Z,21.28
2022-08-28T12:43:02.848Z,21.08
2022-08-28T12:45:33.002Z,20.83
2022-08-28T12:48:00.734Z,21.03
2022-08-28T12:50:30.095Z,21.18
2022-08-28T12:52:58.514Z,21.16
2022-08-28T12:55:25.075Z,21.39
2022-08-28T12:57:51.738Z,21.32
2022-08-28T13:00:23.300Z,21.28
2022-08-28T13:02:53.133Z,21.21
2022-08-28T13:05:27.184Z,21.40
2022-08-28T13:07:59.292Z,21.28
2022-08-28T13:10:29.626Z,21.25
2022-08-28T13:13:07.273Z,21.35
2022-08-28T13:15:51.858Z,21.27
2022-08-28T13:18:36.979Z,21.43
2022-08-28T13:21:12.724Z,21.80
2022-08-28T13:23:39.371Z,21.82
2022-08-28T13:26:06.692Z,21.83
2022-08-28T13:28:37.517Z,21.75
2022-08-28T13:31:04.699Z,21.53
2022-08-28T13:33:31.395Z,21.44
2022-08-28T13:36:01.228Z,21.41
2022-08-28T13:38:27.709Z,21.42
2022-08-28T13:40:59.632Z,21.51
2022-08-28T13:43:28.471Z,21.59
2022-08-28T13:45:55.194Z,21.65
2022-08-28T13:48:23.162Z,21.56
2022-08-28T13:50:51.442Z,21.55
2022-08-28T13:53:18.598Z,21.52
2022-08-28T13:55:48.513Z,21.57
2022-08-28T13:58:16.035Z,21.66
2022-08-28T14:00:46.983Z,21.67
2022-08-28T14:03:32.107Z,21.57
2022-08-28T14:05:58.509Z,21.49
2022-08-28T14:08:25.303Z,21.49
2022-08-28T14:10:54.303Z,21.54
2022-08-28T14:13:23.058Z,21.56
2022-08-28T14:15:49.780Z,21.54
2022-08-28T14:18:18.048Z,21.40
2022-08-28T14:20:44.487Z,21.38
2022-08-28T14:23:12.447Z,21.43
2022-08-28T14:25:42.490Z,21.44
2022-08-28T14:28:12.560Z,21.50
2022-08-28T14:30:46.590Z,21.54
2022-08-28T14:33:15.350Z,21.42
2022-08-28T14:35:41.944Z,21.42
2022-08-28T14:38:09.597Z,21.37
2022-08-28T14:40:38.375Z,21.36
2022-08-28T14:43:05.465Z,21.29
2022-08-28T14:45:32.060Z,21.29
2022-08-28T14:47:58.508Z,21.28
2022-08-28T14:50:24.956Z,21.36
2022-08-28T14:52:57.113Z,21.32
2022-08-28T14:55:23.588Z,21.23
2022-08-28T14:57:51.244Z,21.17
2022-08-28T15:00:17.901Z,21.23
2022-08-28T15:02:44.966Z,21.15
2022-08-28T15:05:11.899Z,21.09
2022-08-28T15:07:38.414Z,21.05
2022-08-28T15:10:05.008Z,21.13
2022-08-28T15:12:31.625Z,21.21
2022-08-28T15:14:58.101Z,21.24
2022-08-28T15:17:33.891Z,21.28
2022-08-28T15:20:01.048Z,21.10
2022-08-28T15:22:27.656Z,21.00
2022-08-28T15:24:55.574Z,20.94
2022-08-28T15:27:25.591Z,21.00
2022-08-28T15:29:52.236Z,21.08
2022-08-28T15:32:18.667Z,21.09
2022-08-28T15:34:45.077Z,21.07
2022-08-28T15:37:13.353Z,21.18
2022-08-28T15:39:58.629Z,21.19
2022-08-28T15:42:25.098Z,21.11
2022-08-28T15:44:51.562Z,21.09
2022-08-28T15:47:18.963Z,21.10
2022-08-28T15:49:49.709Z,21.20
2022-08-28T15:52:16.863Z,21.18
2022-08-28T15:54:43.270Z,21.15
2022-08-28T15:57:12.695Z,21.09
2022-08-28T15:59:49.516Z,21.04
2022-08-28T16:02:17.798Z,21.02
2022-08-28T16:04:44.264Z,20.95
2022-08-28T16:07:13.542Z,20.87
2022-08-28T16:09:39.977Z,20.80
2022-08-28T16:12:06.543Z,20.68
2022-08-28T16:14:33.119Z,20.51
2022-08-28T16:17:10.702Z,20.56
2022-08-28T16:19:38.548Z,20.65
2022-08-28T16:22:04.992Z,20.65
2022-08-28T16:24:31.448Z,20.75
2022-08-28T16:26:57.818Z,20.77
2022-08-28T16:29:24.296Z,20.84
2022-08-28T16:31:50.732Z,20.78
2022-08-28T16:34:19.613Z,20.62
2022-08-28T16:36:53.060Z,20.56
2022-08-28T16:39:19.534Z,20.54
2022-08-28T16:41:49.885Z,20.52
2022-08-28T16:44:19.833Z,20.47
2022-08-28T16:46:46.830Z,20.46
2022-08-28T16:49:13.456Z,20.39
2022-08-28T16:51:41.949Z,20.31
2022-08-28T16:54:08.410Z,20.22
2022-08-28T16:56:35.342Z,20.21
2022-08-28T16:59:02.063Z,20.22
2022-08-28T17:01:28.702Z,20.17
2022-08-28T17:03:55.939Z,20.08
2022-08-28T17:06:23.987Z,19.99
2022-08-28T17:08:55.911Z,20.05
2022-08-28T17:11:24.179Z,20.08
2022-08-28T17:13:50.605Z,20.08
2022-08-28T17:16:18.733Z,19.98
2022-08-28T17:18:47.401Z,19.89
2022-08-28T17:21:33.674Z,19.82
2022-08-28T17:24:00.177Z,19.82
2022-08-28T17:26:26.603Z,19.77
2022-08-28T17:28:53.053Z,19.79
2022-08-28T17:31:19.950Z,19.73
2022-08-28T17:33:46.438Z,19.66
2022-08-28T17:36:30.733Z,19.64
2022-08-28T17:39:03.662Z,19.62
2022-08-28T17:41:30.213Z,19.54
2022-08-28T17:43:56.799Z,19.52
2022-08-28T17:46:23.336Z,19.49
2022-08-28T17:48:56.060Z,19.46
2022-08-28T17:51:43.070Z,19.36
2022-08-28T17:54:11.649Z,19.25
2022-08-28T17:56:38.143Z,19.21
2022-08-28T17:59:05.025Z,19.20
2022-08-28T18:01:31.553Z,19.16
2022-08-28T18:03:58.147Z,19.08
2022-08-28T18:06:24.988Z,19.03
2022-08-28T18:08:51.870Z,18.89
2022-08-28T18:11:19.141Z,18.83
2022-08-28T18:13:46.193Z,18.82
2022-08-28T18:16:12.805Z,18.78
2022-08-28T18:18:39.309Z,18.70
2022-08-28T18:21:05.783Z,18.62
2022-08-28T18:23:37.686Z,18.54
2022-08-28T18:26:04.093Z,18.59
2022-08-28T18:28:31.991Z,18.61
2022-08-28T18:31:01.820Z,18.65
2022-08-28T18:33:29.627Z,18.64
2022-08-28T18:35:57.237Z,18.67
2022-08-28T18:38:27.830Z,18.68
2022-08-28T18:40:54.618Z,18.65
2022-08-28T18:43:22.487Z,18.58
2022-08-28T18:45:49.094Z,18.47
2022-08-28T18:48:15.655Z,18.35
2022-08-28T18:50:46.173Z,18.27
2022-08-28T18:53:13.838Z,18.23
2022-08-28T18:55:40.288Z,18.17
2022-08-28T18:58:14.003Z,18.14
2022-08-28T19:00:41.992Z,18.05
2022-08-28T19:03:09.291Z,18.00
2022-08-28T19:05:36.432Z,17.92
2022-08-28T19:08:02.907Z,17.95
2022-08-28T19:10:33.855Z,17.89
2022-08-28T19:13:04.383Z,17.80
2022-08-28T19:15:33.212Z,17.81
2022-08-28T19:18:06.375Z,17.89
2022-08-28T19:20:33.539Z,17.86
2022-08-28T19:23:00.387Z,17.88
2022-08-28T19:25:29.278Z,17.82
2022-08-28T19:28:02.655Z,17.81
2022-08-28T19:30:32.935Z,17.80
2022-08-28T19:33:00.742Z,17.68
2022-08-28T19:35:27.189Z,17.68
2022-08-28T19:37:54.047Z,17.58
2022-08-28T19:40:20.914Z,17.64
2022-08-28T19:42:51.244Z,17.64
2022-08-28T19:45:18.235Z,17.70
2022-08-28T19:47:48.132Z,17.59
2022-08-28T19:50:15.559Z,17.62
2022-08-28T19:52:43.070Z,17.56
2022-08-28T19:55:13.107Z,17.54
2022-08-28T19:57:39.704Z,17.45
2022-08-28T20:00:06.349Z,17.35
2022-08-28T20:02:36.597Z,17.39
2022-08-28T20:05:06.490Z,17.41
2022-08-28T20:07:34.613Z,17.42
2022-08-28T20:10:01.429Z,17.41
2022-08-28T20:12:27.911Z,17.35
2022-08-28T20:14:54.320Z,17.34
2022-08-28T20:17:20.775Z,17.36
2022-08-28T20:19:48.979Z,17.40
2022-08-28T20:22:15.750Z,17.42
2022-08-28T20:24:42.185Z,17.43
2022-08-28T20:27:08.691Z,17.46
2022-08-28T20:29:35.150Z,17.45
2022-08-28T20:32:04.527Z,17.39
2022-08-28T20:34:30.920Z,17.27
2022-08-28T20:36:57.349Z,17.27
2022-08-28T20:39:23.768Z,17.27
2022-08-28T20:41:50.251Z,17.20
2022-08-28T20:44:17.800Z,17.17
2022-08-28T20:46:44.595Z,17.06
2022-08-28T20:49:17.778Z,17.03
2022-08-28T20:51:53.788Z,16.97
2022-08-28T20:54:21.506Z,17.04
2022-08-28T20:56:48.503Z,17.00
2022-08-28T20:59:14.960Z,16.85
2022-08-28T21:01:41.631Z,16.90
2022-08-28T21:04:08.267Z,16.88
2022-08-28T21:06:34.799Z,16.83
2022-08-28T21:09:04.190Z,16.90
2022-08-28T21:11:31.162Z,16.93
2022-08-28T21:13:59.503Z,16.88
2022-08-28T21:16:26.082Z,16.82
2022-08-28T21:19:14.487Z,16.74
2022-08-28T21:21:39.478Z,16.76
2022-08-28T21:24:06.763Z,16.73
2022-08-28T21:26:33.232Z,16.61
2022-08-28T21:29:00.783Z,16.61
2022-08-28T21:31:27.315Z,16.49
2022-08-28T21:33:53.904Z,16.34
2022-08-28T21:36:20.352Z,16.33
2022-08-28T21:38:47.356Z,16.31
2022-08-28T21:41:14.764Z,16.26
2022-08-28T21:43:45.354Z,16.32
2022-08-28T21:46:16.391Z,16.35
2022-08-28T21:48:43.410Z,16.42
2022-08-28T21:51:12.378Z,16.37
2022-08-28T21:53:39.948Z,16.43
2022-08-28T21:56:07.418Z,16.48
2022-08-28T21:58:36.077Z,16.49
2022-08-28T22:01:02.747Z,16.48
2022-08-28T22:03:29.247Z,16.40
2022-08-28T22:05:56.341Z,16.33
2022-08-28T22:08:24.757Z,16.24
2022-08-28T22:10:51.715Z,16.17
2022-08-28T22:13:18.520Z,16.23
2022-08-28T22:15:46.115Z,16.16
2022-08-28T22:18:14.175Z,16.16
2022-08-28T22:21:01.535Z,16.15
2022-08-28T22:23:29.003Z,16.06
2022-08-28T22:25:55.423Z,16.06
2022-08-28T22:28:21.870Z,16.00
2022-08-28T22:30:51.900Z,16.16
2022-08-28T22:33:18.296Z,16.12
2022-08-28T22:35:44.893Z,16.12
2022-08-28T22:38:11.313Z,16.05
2022-08-28T22:40:37.860Z,16.08
2022-08-28T22:43:04.256Z,15.89
2022-08-28T22:45:31.468Z,15.69
2022-08-28T22:47:58.006Z,15.72
2022-08-28T22:50:24.409Z,15.80
2022-08-28T22:52:50.917Z,15.75
2022-08-28T22:55:18.346Z,15.78
2022-08-28T22:57:48.049Z,15.82
2022-08-28T23:00:16.455Z,15.94
2022-08-28T23:02:43.642Z,15.96
2022-08-28T23:05:10.663Z,15.95
2022-08-28T23:07:37.125Z,15.92
2022-08-28T23:10:04.644Z,15.84
2022-08-28T23:12:31.161Z,15.62
2022-08-28T23:14:59.804Z,15.53
2022-08-28T23:17:26.272Z,15.58
2022-08-28T23:19:52.711Z,15.66
2022-08-28T23:22:19.396Z,15.69
2022-08-28T23:24:46.934Z,15.69
2022-08-28T23:27:34.602Z,15.69
2022-08-28T23:29:59.940Z,15.64
2022-08-28T23:32:26.385Z,15.63
2022-08-28T23:34:52.820Z,15.65
2022-08-28T23:37:19.234Z,15.66
2022-08-28T23:39:46.243Z,15.69
2022-08-28T23:42:16.798Z,15.66
2022-08-28T23:44:43.257Z,15.60
2022-08-28T23:47:12.021Z,15.55
2022-08-28T23:49:42.629Z,15.58
2022-08-28T23:52:09.335Z,15.44
2022-08-28T23:54:36.528Z,15.37
2022-08-28T23:57:06.749Z,15.32
2022-08-28T23:59:33.534Z,15.39
